createdAt,value
2023-01-26T00:00:10.904Z,11.10
2023-01-26T00:02:13.887Z,9.83
2023-01-26T00:04:16.643Z,10.23
2023-01-26T00:06:21.283Z,13.43
2023-01-26T00:08:23.980Z,11.40
2023-01-26T00:10:27.987Z,12.70
2023-01-26T00:12:30.724Z,12.10
2023-01-26T00:14:49.849Z,11.80
2023-01-26T00:16:53.764Z,10.90
2023-01-26T00:18:56.512Z,10.47
2023-01-26T00:21:00.544Z,11.47
2023-01-26T00:23:03.461Z,11.20
2023-01-26T00:25:06.863Z,13.03
2023-01-26T00:27:09.584Z,13.43
2023-01-26T00:29:12.289Z,15.37
2023-01-26T00:31:18.903Z,11.87
2023-01-26T00:33:21.701Z,16.23
2023-01-26T00:35:25.052Z,16.90
2023-01-26T00:37:27.826Z,16.00
2023-01-26T00:39:30.582Z,14.10
2023-01-26T00:41:50.748Z,13.93
2023-01-26T00:43:53.452Z,14.50
2023-01-26T00:45:56.241Z,11.50
2023-01-26T00:48:00.690Z,14.37
2023-01-26T00:50:03.485Z,11.80
2023-01-26T00:52:07.319Z,13.47
2023-01-26T00:54:10.164Z,12.37
2023-01-26T00:56:14.699Z,10.40
2023-01-26T00:58:17.402Z,12.53
2023-01-26T01:00:20.518Z,10.93
2023-01-26T01:02:23.275Z,11.70
2023-01-26T01:04:27.318Z,12.83
2023-01-26T01:06:30.184Z,9.77
2023-01-26T01:08:32.899Z,10.63
2023-01-26T01:10:35.702Z,10.30
2023-01-26T01:12:38.518Z,10.83
2023-01-26T01:14:41.259Z,13.17
2023-01-26T01:16:45.255Z,9.70
2023-01-26T01:18:47.968Z,9.60
2023-01-26T01:20:52.072Z,11.37
2023-01-26T01:22:54.793Z,10.90
2023-01-26T01:24:57.528Z,11.20
2023-01-26T01:27:00.251Z,10.73
2023-01-26T01:29:03.005Z,11.83
2023-01-26T01:31:06.162Z,10.17
2023-01-26T01:33:08.977Z,11.20
2023-01-26T01:35:11.762Z,10.73
2023-01-26T01:37:16.317Z,10.27
2023-01-26T01:39:19.036Z,11.10
2023-01-26T01:41:23.776Z,10.37
2023-01-26T01:43:27.564Z,10.77
2023-01-26T01:45:44.311Z,11.23
2023-01-26T01:47:47.184Z,8.77
2023-01-26T01:49:53.554Z,10.97
2023-01-26T01:52:00.651Z,9.80
2023-01-26T01:54:09.018Z,10.40
2023-01-26T01:56:19.053Z,10.67
2023-01-26T01:58:22.258Z,9.73
2023-01-26T02:00:25.608Z,10.67
2023-01-26T02:02:28.776Z,10.43
2023-01-26T02:04:31.770Z,10.23
2023-01-26T02:06:40.275Z,9.30
2023-01-26T02:08:47.190Z,9.70
2023-01-26T02:10:54.875Z,9.37
2023-01-26T02:13:00.650Z,9.40
2023-01-26T02:15:05.140Z,8.60
2023-01-26T02:17:07.977Z,8.33
2023-01-26T02:19:19.663Z,8.90
2023-01-26T02:21:24.880Z,7.63
2023-01-26T02:23:39.100Z,7.23
2023-01-26T02:25:48.982Z,7.17
2023-01-26T02:27:53.170Z,7.80
2023-01-26T02:29:57.856Z,6.80
2023-01-26T02:32:00.576Z,6.77
2023-01-26T02:34:03.255Z,7.60
2023-01-26T02:36:07.374Z,6.40
2023-01-26T02:38:10.127Z,5.40
2023-01-26T02:40:20.330Z,6.43
2023-01-26T02:42:41.949Z,5.93
2023-01-26T02:44:46.401Z,6.40
2023-01-26T02:46:49.087Z,4.03
2023-01-26T02:49:09.428Z,6.37
2023-01-26T02:51:12.317Z,6.07
2023-01-26T02:53:15.051Z,6.27
2023-01-26T02:55:22.858Z,6.87
2023-01-26T02:57:26.004Z,6.60
2023-01-26T02:59:28.743Z,6.10
2023-01-26T03:01:32.824Z,6.40
2023-01-26T03:03:45.593Z,6.70
2023-01-26T03:05:48.620Z,6.67
2023-01-26T03:07:51.368Z,7.37
2023-01-26T03:09:54.275Z,7.60
2023-01-26T03:11:57.005Z,7.17
2023-01-26T03:13:59.772Z,6.90
2023-01-26T03:16:06.941Z,6.07
2023-01-26T03:18:30.555Z,8.03
2023-01-26T03:20:51.103Z,7.37
2023-01-26T03:23:11.281Z,8.43
2023-01-26T03:25:31.567Z,9.20
2023-01-26T03:27:40.896Z,9.40
2023-01-26T03:29:43.639Z,11.00
2023-01-26T03:31:46.452Z,9.73
2023-01-26T03:33:50.487Z,10.43
2023-01-26T03:35:54.759Z,9.97
2023-01-26T03:37:57.480Z,12.80
2023-01-26T03:40:29.350Z,9.77
2023-01-26T03:42:49.334Z,11.73
2023-01-26T03:45:09.397Z,12.30
2023-01-26T03:47:29.612Z,12.03
2023-01-26T03:49:51.209Z,10.07
2023-01-26T03:52:11.413Z,12.67
2023-01-26T03:54:31.545Z,13.03
2023-01-26T03:56:34.345Z,15.40
2023-01-26T03:58:37.041Z,14.80
2023-01-26T04:00:39.781Z,14.70
2023-01-26T04:03:00.369Z,15.17
2023-01-26T04:05:22.977Z,14.33
2023-01-26T04:07:43.247Z,13.20
2023-01-26T04:09:45.947Z,13.53
2023-01-26T04:11:49.029Z,13.37
2023-01-26T04:14:09.132Z,12.97
2023-01-26T04:16:29.452Z,12.13
2023-01-26T04:18:50.277Z,15.37
2023-01-26T04:21:11.714Z,14.70
2023-01-26T04:23:19.004Z,14.43
2023-01-26T04:25:22.710Z,14.30
2023-01-26T04:27:25.406Z,16.00
2023-01-26T04:29:28.116Z,14.77
2023-01-26T04:31:30.971Z,12.17
2023-01-26T04:33:33.731Z,15.10
2023-01-26T04:35:36.452Z,14.13
2023-01-26T04:37:40.745Z,14.37
2023-01-26T04:39:43.580Z,14.87
2023-01-26T04:41:46.318Z,15.90
2023-01-26T04:43:49.061Z,14.33
2023-01-26T04:45:59.390Z,16.97
2023-01-26T04:48:02.116Z,16.50
2023-01-26T04:50:05.301Z,17.23
2023-01-26T04:52:07.986Z,15.73
2023-01-26T04:54:12.052Z,16.60
2023-01-26T04:56:21.444Z,15.23
2023-01-26T04:58:24.180Z,17.83
2023-01-26T05:00:26.860Z,16.37
2023-01-26T05:02:29.566Z,16.07
2023-01-26T05:04:33.030Z,16.30
2023-01-26T05:06:35.807Z,14.23
2023-01-26T05:08:39.146Z,13.63
2023-01-26T05:10:43.216Z,14.93
2023-01-26T05:12:45.908Z,14.50
2023-01-26T05:14:48.911Z,15.17
2023-01-26T05:16:51.646Z,17.00
2023-01-26T05:18:54.823Z,13.53
2023-01-26T05:20:57.967Z,17.77
2023-01-26T05:23:00.805Z,17.97
2023-01-26T05:25:03.600Z,34.20
2023-01-26T05:27:22.858Z,19.43
2023-01-26T05:29:25.599Z,23.37
2023-01-26T05:31:28.390Z,17.30
2023-01-26T05:33:32.206Z,14.57
2023-01-26T05:35:35.399Z,16.47
2023-01-26T05:37:38.270Z,17.53
2023-01-26T05:39:40.983Z,14.70
2023-01-26T05:41:43.711Z,20.30
2023-01-26T05:43:47.713Z,14.20
2023-01-26T05:45:50.494Z,14.03
2023-01-26T05:47:53.208Z,16.23
2023-01-26T05:49:55.957Z,15.13
2023-01-26T05:51:59.383Z,23.00
2023-01-26T05:54:02.069Z,22.90
2023-01-26T05:56:05.038Z,18.80
2023-01-26T05:58:07.760Z,19.43
2023-01-26T06:00:14.004Z,14.17
2023-01-26T06:02:16.943Z,21.97
2023-01-26T06:04:20.062Z,23.07
2023-01-26T06:06:22.779Z,18.53
2023-01-26T06:08:25.474Z,17.93
2023-01-26T06:10:28.188Z,19.60
2023-01-26T06:12:35.300Z,17.70
2023-01-26T06:14:37.971Z,20.27
2023-01-26T06:16:42.285Z,18.10
2023-01-26T06:18:48.238Z,15.00
2023-01-26T06:20:50.965Z,15.60
2023-01-26T06:22:53.697Z,16.27
2023-01-26T06:24:56.398Z,17.53
2023-01-26T06:26:59.121Z,15.90
2023-01-26T06:29:02.253Z,18.87
2023-01-26T06:31:06.497Z,20.00
2023-01-26T06:33:10.591Z,15.20
2023-01-26T06:35:13.284Z,17.73
2023-01-26T06:37:16.027Z,19.23
2023-01-26T06:39:18.815Z,15.00
2023-01-26T06:41:21.585Z,14.87
2023-01-26T06:43:24.260Z,14.77
2023-01-26T06:45:26.991Z,13.23
2023-01-26T06:47:29.743Z,16.40
2023-01-26T06:49:33.818Z,15.93
2023-01-26T06:51:47.227Z,14.77
2023-01-26T06:53:53.451Z,14.20
2023-01-26T06:55:56.155Z,15.53
2023-01-26T06:57:58.946Z,16.30
2023-01-26T07:00:01.748Z,15.60
2023-01-26T07:02:04.548Z,15.40
2023-01-26T07:04:07.334Z,16.83
2023-01-26T07:06:12.249Z,15.47
2023-01-26T07:08:15.005Z,13.27
2023-01-26T07:10:17.791Z,14.87
2023-01-26T07:12:21.087Z,18.03
2023-01-26T07:14:23.830Z,17.77
2023-01-26T07:16:26.961Z,16.50
2023-01-26T07:18:29.931Z,12.07
2023-01-26T07:20:32.675Z,14.23
2023-01-26T07:22:36.718Z,14.50
2023-01-26T07:24:39.418Z,12.93
2023-01-26T07:26:42.126Z,14.30
2023-01-26T07:28:44.963Z,14.60
2023-01-26T07:30:47.761Z,14.60
2023-01-26T07:32:50.480Z,16.70
2023-01-26T07:34:53.165Z,13.60
2023-01-26T07:36:55.908Z,14.50
2023-01-26T07:38:59.908Z,14.30
2023-01-26T07:41:07.827Z,14.47
2023-01-26T07:43:10.494Z,14.97
2023-01-26T07:45:13.280Z,15.13
2023-01-26T07:47:16.128Z,15.30
2023-01-26T07:49:18.828Z,15.23
2023-01-26T07:51:21.620Z,15.03
2023-01-26T07:53:26.300Z,16.00
2023-01-26T07:55:30.500Z,15.03
2023-01-26T07:57:34.307Z,14.70
2023-01-26T07:59:37.042Z,16.00
2023-01-26T08:01:39.792Z,14.23
2023-01-26T08:03:45.386Z,14.77
2023-01-26T08:05:48.100Z,15.70
2023-01-26T08:07:51.090Z,14.47
2023-01-26T08:09:53.779Z,13.83
2023-01-26T08:11:59.170Z,15.57
2023-01-26T08:14:01.872Z,23.10
2023-01-26T08:16:06.837Z,15.33
2023-01-26T08:18:09.576Z,14.77
2023-01-26T08:20:14.329Z,14.93
2023-01-26T08:22:17.203Z,15.27
2023-01-26T08:24:19.935Z,16.93
2023-01-26T08:26:23.034Z,11.73
2023-01-26T08:28:27.067Z,13.10
2023-01-26T08:30:29.761Z,13.27
2023-01-26T08:32:32.510Z,13.77
2023-01-26T08:34:35.329Z,13.97
2023-01-26T08:36:39.919Z,13.97
2023-01-26T08:38:43.129Z,13.13
2023-01-26T08:40:45.848Z,13.97
2023-01-26T08:42:48.630Z,14.27
2023-01-26T08:44:53.326Z,13.50
2023-01-26T08:46:56.043Z,13.87
2023-01-26T08:49:00.439Z,14.47
2023-01-26T08:51:05.732Z,15.37
2023-01-26T08:53:08.843Z,14.90
2023-01-26T08:55:11.792Z,16.63
2023-01-26T08:57:14.484Z,15.53
2023-01-26T08:59:17.186Z,15.73
2023-01-26T09:01:21.295Z,18.00
2023-01-26T09:03:24.009Z,15.90
2023-01-26T09:05:26.909Z,22.13
2023-01-26T09:07:29.595Z,18.20
2023-01-26T09:09:32.298Z,18.20
2023-01-26T09:11:35.055Z,17.90
2023-01-26T09:13:39.038Z,17.80
2023-01-26T09:15:41.842Z,18.70
2023-01-26T09:17:48.914Z,18.87
2023-01-26T09:19:51.655Z,18.87
2023-01-26T09:21:54.927Z,17.03
2023-01-26T09:23:57.882Z,18.93
2023-01-26T09:26:00.759Z,19.27
2023-01-26T09:28:05.555Z,18.47
2023-01-26T09:30:09.886Z,20.80
2023-01-26T09:32:12.638Z,20.37
2023-01-26T09:34:16.817Z,19.97
2023-01-26T09:36:19.974Z,18.20
2023-01-26T09:38:22.677Z,18.97
2023-01-26T09:40:36.984Z,19.03
2023-01-26T09:42:49.935Z,25.47
2023-01-26T09:45:00.736Z,20.90
2023-01-26T09:47:13.312Z,23.30
2023-01-26T09:49:22.158Z,18.80
2023-01-26T09:51:30.241Z,20.90
2023-01-26T09:53:43.255Z,21.07
2023-01-26T09:55:47.024Z,21.03
2023-01-26T09:57:53.646Z,18.73
2023-01-26T09:59:59.570Z,21.47
2023-01-26T10:02:16.012Z,20.27
2023-01-26T10:04:32.721Z,20.47
2023-01-26T10:06:38.206Z,21.60
2023-01-26T10:08:42.439Z,19.63
2023-01-26T10:10:49.179Z,20.03
2023-01-26T10:12:53.109Z,21.57
2023-01-26T10:15:02.299Z,19.40
2023-01-26T10:17:07.064Z,21.17
2023-01-26T10:19:16.448Z,20.00
2023-01-26T10:21:23.607Z,21.40
2023-01-26T10:23:29.737Z,22.63
2023-01-26T10:25:36.028Z,19.87
2023-01-26T10:27:39.024Z,23.10
2023-01-26T10:29:41.793Z,20.10
2023-01-26T10:31:46.016Z,19.73
2023-01-26T10:33:53.163Z,19.20
2023-01-26T10:35:56.071Z,20.57
2023-01-26T10:38:00.218Z,19.63
2023-01-26T10:40:04.676Z,18.50
2023-01-26T10:42:19.037Z,18.77
2023-01-26T10:44:25.625Z,19.07
2023-01-26T10:46:33.987Z,18.17
2023-01-26T10:48:36.763Z,21.47
2023-01-26T10:50:39.468Z,21.37
2023-01-26T10:52:58.417Z,21.97
2023-01-26T10:55:20.789Z,19.23
2023-01-26T10:57:28.975Z,23.57
2023-01-26T10:59:35.138Z,19.97
2023-01-26T11:01:53.635Z,18.37
2023-01-26T11:04:05.914Z,20.40
2023-01-26T11:06:14.316Z,22.40
2023-01-26T11:08:33.420Z,25.40
2023-01-26T11:10:39.058Z,23.57
2023-01-26T11:12:41.845Z,17.70
2023-01-26T11:15:01.297Z,20.90
2023-01-26T11:17:14.835Z,15.37
2023-01-26T11:19:29.074Z,17.87
2023-01-26T11:21:37.275Z,16.90
2023-01-26T11:23:49.639Z,17.77
2023-01-26T11:26:20.671Z,16.67
2023-01-26T11:28:38.363Z,14.93
2023-01-26T11:31:08.168Z,16.80
2023-01-26T11:33:21.579Z,14.97
2023-01-26T11:35:32.424Z,13.90
2023-01-26T11:37:44.369Z,15.87
2023-01-26T11:39:57.379Z,19.60
2023-01-26T11:42:18.389Z,23.90
2023-01-26T11:44:36.111Z,14.60
2023-01-26T11:46:52.734Z,18.00
2023-01-26T11:49:05.097Z,18.73
2023-01-26T11:51:14.541Z,19.53
2023-01-26T11:53:35.211Z,20.23
2023-01-26T11:55:48.940Z,21.17
2023-01-26T11:58:06.447Z,20.53
2023-01-26T12:00:29.073Z,17.77
2023-01-26T12:02:34.821Z,19.03
2023-01-26T12:04:45.327Z,18.60
2023-01-26T12:06:54.091Z,20.17
2023-01-26T12:09:02.695Z,19.27
2023-01-26T12:11:25.610Z,17.63
2023-01-26T12:13:36.734Z,17.57
2023-01-26T12:15:44.005Z,18.93
2023-01-26T12:17:58.757Z,18.77
2023-01-26T12:20:14.368Z,18.30
2023-01-26T12:22:21.518Z,17.03
2023-01-26T12:25:00.888Z,17.37
2023-01-26T12:26:57.960Z,17.23
2023-01-26T12:29:09.697Z,16.70
2023-01-26T12:31:19.124Z,18.53
2023-01-26T12:33:22.002Z,16.27
2023-01-26T12:35:36.929Z,12.27
2023-01-26T12:37:49.446Z,12.30
2023-01-26T12:39:57.274Z,12.43
2023-01-26T12:42:13.935Z,10.20
2023-01-26T12:44:29.603Z,13.27
2023-01-26T12:46:38.132Z,10.93
2023-01-26T12:48:45.995Z,12.40
2023-01-26T12:50:52.562Z,11.10
2023-01-26T12:52:58.796Z,16.00
2023-01-26T12:55:07.410Z,13.70
2023-01-26T12:57:15.757Z,17.50
2023-01-26T12:59:39.168Z,14.57
2023-01-26T13:01:48.890Z,10.73
2023-01-26T13:03:55.000Z,11.20
2023-01-26T13:05:59.766Z,11.47
2023-01-26T13:08:36.146Z,11.97
2023-01-26T13:10:49.359Z,22.40
2023-01-26T13:12:53.779Z,19.50
2023-01-26T13:15:07.824Z,17.77
2023-01-26T13:17:44.211Z,10.90
2023-01-26T13:19:54.103Z,14.20
2023-01-26T13:21:56.930Z,12.07
2023-01-26T13:23:59.828Z,12.07
2023-01-26T13:26:25.328Z,10.93
2023-01-26T13:28:29.696Z,11.20
2023-01-26T13:31:03.769Z,12.73
2023-01-26T13:33:14.536Z,11.00
2023-01-26T13:35:21.362Z,13.03
2023-01-26T13:37:28.729Z,11.40
2023-01-26T13:39:35.484Z,10.67
2023-01-26T13:41:46.234Z,10.63
2023-01-26T13:43:53.400Z,9.87
2023-01-26T13:46:09.064Z,8.17
2023-01-26T13:48:15.937Z,7.97
2023-01-26T13:50:31.145Z,10.03
2023-01-26T13:52:35.056Z,8.90
2023-01-26T13:54:41.575Z,11.20
2023-01-26T13:57:00.471Z,8.37
2023-01-26T13:59:08.911Z,11.10
2023-01-26T14:01:16.944Z,11.80
2023-01-26T14:03:22.921Z,9.03
2023-01-26T14:05:25.905Z,12.23
2023-01-26T14:07:33.075Z,12.30
2023-01-26T14:09:43.894Z,13.73
2023-01-26T14:11:55.282Z,13.90
2023-01-26T14:14:01.183Z,16.57
2023-01-26T14:16:06.346Z,15.27
2023-01-26T14:18:22.127Z,12.80
2023-01-26T14:20:28.752Z,12.23
2023-01-26T14:22:31.783Z,16.00
2023-01-26T14:24:39.663Z,16.67
2023-01-26T14:26:43.493Z,16.60
2023-01-26T14:28:47.509Z,20.70
2023-01-26T14:30:53.668Z,19.40
2023-01-26T14:32:59.878Z,18.13
2023-01-26T14:35:04.360Z,17.73
2023-01-26T14:37:13.349Z,18.87
2023-01-26T14:39:20.724Z,19.23
2023-01-26T14:41:25.778Z,17.47
2023-01-26T14:43:29.088Z,17.27
2023-01-26T14:45:36.009Z,14.50
2023-01-26T14:47:39.330Z,17.23
2023-01-26T14:49:48.235Z,18.67
2023-01-26T14:51:57.988Z,18.93
2023-01-26T14:54:04.591Z,17.43
2023-01-26T14:56:18.144Z,18.23
2023-01-26T14:58:26.224Z,17.50
2023-01-26T15:00:32.074Z,18.37
2023-01-26T15:02:37.680Z,21.00
2023-01-26T15:04:41.477Z,17.03
2023-01-26T15:06:44.480Z,19.33
2023-01-26T15:09:03.523Z,20.77
2023-01-26T15:11:24.484Z,18.87
2023-01-26T15:13:32.284Z,19.23
2023-01-26T15:15:39.439Z,20.10
2023-01-26T15:17:43.850Z,19.67
2023-01-26T15:19:46.593Z,19.17
2023-01-26T15:21:49.338Z,19.47
2023-01-26T15:23:53.752Z,18.17
2023-01-26T15:26:05.776Z,22.47
2023-01-26T15:28:18.544Z,21.13
2023-01-26T15:30:26.167Z,22.60
2023-01-26T15:32:32.092Z,23.40
2023-01-26T15:34:37.257Z,25.57
2023-01-26T15:36:50.305Z,21.83
2023-01-26T15:38:59.179Z,23.07
2023-01-26T15:41:03.457Z,24.37
2023-01-26T15:43:13.662Z,22.37
2023-01-26T15:45:24.448Z,20.77
2023-01-26T15:47:27.383Z,22.37
2023-01-26T15:49:30.069Z,23.07
2023-01-26T15:51:33.424Z,21.50
2023-01-26T15:53:36.175Z,20.07
2023-01-26T15:55:39.913Z,20.67
2023-01-26T15:57:43.967Z,23.70
2023-01-26T15:59:46.784Z,30.70
2023-01-26T16:01:49.559Z,23.77
2023-01-26T16:03:53.631Z,23.87
2023-01-26T16:05:59.391Z,28.37
2023-01-26T16:08:02.103Z,24.73
2023-01-26T16:10:05.762Z,24.70
2023-01-26T16:12:25.939Z,24.07
2023-01-26T16:14:34.781Z,22.77
2023-01-26T16:16:37.580Z,23.60
2023-01-26T16:18:41.176Z,24.53
2023-01-26T16:20:45.335Z,24.80
2023-01-26T16:22:48.282Z,25.27
2023-01-26T16:24:51.137Z,25.10
2023-01-26T16:26:56.890Z,25.47
2023-01-26T16:28:59.752Z,24.53
2023-01-26T16:31:06.277Z,24.47
2023-01-26T16:33:12.326Z,23.43
2023-01-26T16:35:16.800Z,22.17
2023-01-26T16:37:19.492Z,25.50
2023-01-26T16:39:22.469Z,23.50
2023-01-26T16:41:29.372Z,27.50
2023-01-26T16:43:32.677Z,25.60
2023-01-26T16:45:35.476Z,27.13
2023-01-26T16:47:39.735Z,28.80
2023-01-26T16:49:42.493Z,26.37
2023-01-26T16:51:45.518Z,27.00
2023-01-26T16:53:49.192Z,26.93
2023-01-26T16:55:54.168Z,25.80
2023-01-26T16:57:57.005Z,26.00
2023-01-26T16:59:59.818Z,26.93
2023-01-26T17:02:02.903Z,28.57
2023-01-26T17:04:08.767Z,25.17
2023-01-26T17:06:12.498Z,22.70
2023-01-26T17:08:17.510Z,24.50
2023-01-26T17:10:22.419Z,21.60
2023-01-26T17:12:25.139Z,20.30
2023-01-26T17:14:27.936Z,18.30
2023-01-26T17:16:32.700Z,26.63
2023-01-26T17:18:35.929Z,19.87
2023-01-26T17:20:41.865Z,16.00
2023-01-26T17:22:44.842Z,23.40
2023-01-26T17:24:47.703Z,23.00
2023-01-26T17:26:50.532Z,26.47
2023-01-26T17:28:55.996Z,22.53
2023-01-26T17:31:01.118Z,23.17
2023-01-26T17:33:04.201Z,23.43
2023-01-26T17:35:07.539Z,25.67
2023-01-26T17:37:11.647Z,24.97
2023-01-26T17:39:14.706Z,18.03
2023-01-26T17:41:17.534Z,21.97
2023-01-26T17:43:22.033Z,25.43
2023-01-26T17:45:25.772Z,24.67
2023-01-26T17:47:28.664Z,24.87
2023-01-26T17:49:31.492Z,21.87
2023-01-26T17:51:34.319Z,17.53
2023-01-26T17:53:42.615Z,18.90
2023-01-26T17:55:46.375Z,25.93
2023-01-26T17:57:49.176Z,23.57
2023-01-26T17:59:52.216Z,26.33
2023-01-26T18:01:55.200Z,26.40
2023-01-26T18:03:57.970Z,24.67
2023-01-26T18:06:00.855Z,28.10
2023-01-26T18:08:03.753Z,26.77
2023-01-26T18:10:09.778Z,25.17
2023-01-26T18:12:12.655Z,26.53
2023-01-26T18:14:15.577Z,24.23
2023-01-26T18:16:20.864Z,16.70
2023-01-26T18:18:23.762Z,28.77
2023-01-26T18:20:26.591Z,25.27
2023-01-26T18:22:29.311Z,23.23
2023-01-26T18:24:32.333Z,26.70
2023-01-26T18:26:38.378Z,35.23
2023-01-26T18:28:41.930Z,26.70
2023-01-26T18:30:44.772Z,23.33
2023-01-26T18:32:47.591Z,22.83
2023-01-26T18:34:50.347Z,25.83
2023-01-26T18:36:53.128Z,21.87
2023-01-26T18:38:57.775Z,23.63
2023-01-26T18:41:00.458Z,19.93
2023-01-26T18:43:04.719Z,23.37
2023-01-26T18:45:08.634Z,23.23
2023-01-26T18:47:11.396Z,23.73
2023-01-26T18:49:14.093Z,20.40
2023-01-26T18:51:18.188Z,22.07
2023-01-26T18:53:21.061Z,22.73
2023-01-26T18:55:23.773Z,19.80
2023-01-26T18:57:26.520Z,20.03
2023-01-26T18:59:30.713Z,19.00
2023-01-26T19:01:33.538Z,22.23
2023-01-26T19:03:36.664Z,20.00
2023-01-26T19:05:40.102Z,18.97
2023-01-26T19:07:42.915Z,20.57
2023-01-26T19:09:45.650Z,19.40
2023-01-26T19:11:48.517Z,20.03
2023-01-26T19:13:51.273Z,22.03
2023-01-26T19:15:55.437Z,18.80
2023-01-26T19:17:58.245Z,18.83
2023-01-26T19:20:00.978Z,18.43
2023-01-26T19:22:03.723Z,18.80
2023-01-26T19:24:07.170Z,18.97
2023-01-26T19:26:13.928Z,18.40
2023-01-26T19:28:16.648Z,19.00
2023-01-26T19:30:19.917Z,18.07
2023-01-26T19:32:24.110Z,16.77
2023-01-26T19:34:28.245Z,15.87
2023-01-26T19:36:33.711Z,13.70
2023-01-26T19:38:39.609Z,14.97
2023-01-26T19:40:45.797Z,18.63
2023-01-26T19:42:48.513Z,11.57
2023-01-26T19:44:51.236Z,15.73
2023-01-26T19:46:54.801Z,14.83
2023-01-26T19:48:59.083Z,16.20
2023-01-26T19:51:03.954Z,16.63
2023-01-26T19:53:07.780Z,15.33
2023-01-26T19:55:10.845Z,14.70
2023-01-26T19:57:13.761Z,15.03
2023-01-26T19:59:16.669Z,14.00
2023-01-26T20:01:19.840Z,14.47
2023-01-26T20:03:24.308Z,14.90
2023-01-26T20:05:28.367Z,16.10
2023-01-26T20:07:31.147Z,14.47
2023-01-26T20:09:34.592Z,15.07
2023-01-26T20:11:37.620Z,12.97
2023-01-26T20:13:40.576Z,14.83
2023-01-26T20:15:43.469Z,12.63
2023-01-26T20:17:46.736Z,14.73
2023-01-26T20:19:49.747Z,13.53
2023-01-26T20:21:53.839Z,14.73
2023-01-26T20:23:56.687Z,13.10
2023-01-26T20:26:03.779Z,15.30
2023-01-26T20:28:06.700Z,15.33
2023-01-26T20:30:12.094Z,13.33
2023-01-26T20:32:14.985Z,12.37
2023-01-26T20:34:21.055Z,12.90
2023-01-26T20:36:25.964Z,12.93
2023-01-26T20:38:30.007Z,12.77
2023-01-26T20:40:32.735Z,14.17
2023-01-26T20:42:35.789Z,14.27
2023-01-26T20:44:38.883Z,13.37
2023-01-26T20:46:42.673Z,16.27
2023-01-26T20:48:46.162Z,13.70
2023-01-26T20:50:48.975Z,12.00
2023-01-26T20:52:51.715Z,11.87
2023-01-26T20:54:55.781Z,14.30
2023-01-26T20:56:58.543Z,13.83
2023-01-26T20:59:01.257Z,16.53
2023-01-26T21:01:06.124Z,16.37
2023-01-26T21:03:08.857Z,14.50
2023-01-26T21:05:11.604Z,12.10
2023-01-26T21:07:14.458Z,15.37
2023-01-26T21:09:32.248Z,17.20
2023-01-26T21:11:37.519Z,15.40
2023-01-26T21:13:41.667Z,16.37
2023-01-26T21:15:44.525Z,15.33
2023-01-26T21:17:47.365Z,15.93
2023-01-26T21:19:50.095Z,17.80
2023-01-26T21:21:52.854Z,11.47
2023-01-26T21:23:55.581Z,15.33
2023-01-26T21:25:59.873Z,13.40
2023-01-26T21:28:03.960Z,15.83
2023-01-26T21:30:07.901Z,14.73
2023-01-26T21:32:10.678Z,12.80
2023-01-26T21:34:13.563Z,15.63
2023-01-26T21:36:18.578Z,13.50
2023-01-26T21:38:21.386Z,19.97
2023-01-26T21:40:24.433Z,16.63
2023-01-26T21:42:27.258Z,19.10
2023-01-26T21:44:33.147Z,15.30
2023-01-26T21:46:35.639Z,15.87
2023-01-26T21:48:39.301Z,14.73
2023-01-26T21:50:59.418Z,13.03
2023-01-26T21:53:02.151Z,12.50
2023-01-26T21:55:05.115Z,16.93
2023-01-26T21:57:24.087Z,19.03
2023-01-26T21:59:27.339Z,14.33
2023-01-26T22:01:32.718Z,12.93
2023-01-26T22:03:36.725Z,15.40
2023-01-26T22:05:39.460Z,15.73
2023-01-26T22:07:42.228Z,11.93
2023-01-26T22:09:44.981Z,20.13
2023-01-26T22:11:50.443Z,16.80
2023-01-26T22:13:53.447Z,20.73
2023-01-26T22:15:59.655Z,15.33
2023-01-26T22:18:03.700Z,19.23
2023-01-26T22:20:07.204Z,16.13
2023-01-26T22:22:09.928Z,13.97
2023-01-26T22:24:14.584Z,15.93
2023-01-26T22:26:19.453Z,15.70
2023-01-26T22:28:22.179Z,16.57
2023-01-26T22:30:24.943Z,15.73
2023-01-26T22:32:27.626Z,14.10
2023-01-26T22:34:32.499Z,12.87
2023-01-26T22:36:35.408Z,13.67
2023-01-26T22:38:39.035Z,15.60
2023-01-26T22:40:41.832Z,15.00
2023-01-26T22:42:44.516Z,16.30
2023-01-26T22:44:47.191Z,17.00
2023-01-26T22:46:49.935Z,18.83
2023-01-26T22:48:52.959Z,16.60
2023-01-26T22:50:57.142Z,15.73
2023-01-26T22:52:59.949Z,12.13
2023-01-26T22:55:02.917Z,12.47
2023-01-26T22:57:05.646Z,11.47
2023-01-26T22:59:08.460Z,11.67
2023-01-26T23:01:13.536Z,16.33
2023-01-26T23:03:16.589Z,16.40
2023-01-26T23:05:19.273Z,17.77
2023-01-26T23:07:24.474Z,11.27
2023-01-26T23:09:27.240Z,14.93
2023-01-26T23:11:30.985Z,12.50
2023-01-26T23:13:34.360Z,12.53
2023-01-26T23:15:38.995Z,16.73
2023-01-26T23:17:41.691Z,14.77
2023-01-26T23:19:47.093Z,21.37
2023-01-26T23:21:49.826Z,17.87
2023-01-26T23:23:53.961Z,14.10
2023-01-26T23:25:56.708Z,14.17
2023-01-26T23:28:03.068Z,14.50
2023-01-26T23:30:06.819Z,16.07
2023-01-26T23:32:09.538Z,15.87
2023-01-26T23:34:12.236Z,17.67
2023-01-26T23:36:16.464Z,16.00
2023-01-26T23:38:20.911Z,11.40
2023-01-26T23:40:24.893Z,12.47
2023-01-26T23:42:27.612Z,14.83
2023-01-26T23:44:30.323Z,11.97
2023-01-26T23:46:33.130Z,13.60
2023-01-26T23:48:36.394Z,12.47
2023-01-26T23:50:39.315Z,10.13
2023-01-26T23:52:42.034Z,12.63
2023-01-26T23:54:44.754Z,11.10
2023-01-26T23:56:48.878Z,11.10
2023-01-26T23:58:51.676Z,11.60
